• Join FlightAware (Why Join?)
  • Login
  • US Flag 
01:14AM EDT


 

Airport Tracker/Info


-or-


 

Live Flight TrackerFlight Track Log ✈ TCF3494 ✈ 14-Sep-2013 ✈ KDEN - KSLC

Flight Track Log - Related Links

Times and Time Zones

All times are in EDT time to prevent confusion due to time zone crossing. See the TCF3494 flight status page for this flight to view local times or setup timezone preferences in your user account.

Time Position Orientation Groundspeed Altitude Reporting Facility
EDT Latitude Longitude Course Direction KTS MPH feet Rate Location/Type
10:26AM 39.8333 -104.7500 277° West 166 191 7,000  Level Denver TRACON
10:27AM 39.8667 -104.8167 303° West 254 292 8,300 1,380 Climbing Denver TRACON
10:28AM 39.8864 -104.8761 293° West 279 321 9,300 2,340 Climbing Denver Center
10:29AM 39.9577 -105.2828 275° West  Level Estimated
10:29AM 39.8992 -104.9914 278° West 299 344 12,200  Level Denver Center
10:30AM 39.9559 -105.4385 269° West  Level FlightAware Approximate
10:30AM 39.9119 -105.1119 278° West 337 388 15,200  Level Denver Center
10:31AM 39.9798 -105.5911 277° West  Level Estimated
10:31AM 39.9272 -105.2444 279° West 344 396 17,900  Level Denver Center
10:32AM 39.9394 -105.3717 277° West 354 407 20,500 2,340 Climbing Denver Center
10:33AM 39.9558 -105.5019 279° West 364 419 22,800 1,980 Climbing Denver Center
10:34AM 39.9681 -105.6269 277° West 370 426 24,700 1,920 Climbing Denver Center
10:35AM 39.9731 -105.7978 272° West 392 451 26,800 1,560 Climbing Denver Center
10:36AM 39.9742 -105.9414 271° West 397 457 28,000 540 Climbing Denver Center
10:37AM 39.9839 -106.0917 275° West 414 476 28,000  Level Denver Center
10:38AM 39.9911 -106.2386 274° West 409 471 28,000  Level Denver Center
10:39AM 39.9989 -106.3875 274° West 412 474 28,000  Level Denver Center
10:40AM 40.0081 -106.5469 274° West 421 484 28,000  Level Denver Center
10:41AM 40.0161 -106.7253 273° West 439 505 28,000  Level Denver Center
10:42AM 40.0228 -106.8747 273° West 434 499 28,000  Level Denver Center
10:43AM 40.0322 -107.0519 274° West 438 504 28,000  Level Denver Center
10:44AM 40.0389 -107.2033 273° West 439 505 28,000  Level Denver Center
10:45AM 40.0450 -107.3542 273° West 436 502 28,000  Level Denver Center
10:46AM 40.0517 -107.5292 273° West 434 499 28,000  Level Denver Center
10:47AM 40.0583 -107.6806 273° West 437 503 28,000  Level Denver Center
10:48AM 40.0650 -107.8564 273° West 437 503 28,000  Level Denver Center
10:49AM 40.0711 -108.0081 273° West 438 504 28,000  Level Denver Center
10:50AM 40.0803 -108.1858 274° West 441 507 28,000  Level Denver Center
10:51AM 40.0858 -108.3381 273° West 441 507 28,000  Level Denver Center
10:52AM 40.0933 -108.5158 273° West 441 507 28,000  Level Denver Center
10:53AM 40.0994 -108.6672 273° West 439 505 28,000  Level Denver Center
10:54AM 40.1064 -108.8456 273° West 443 510 28,000  Level Denver Center
10:56AM 40.1119 -108.9972 273° West 440 506 28,000  Level Denver Center
10:57AM 40.1183 -109.1742 273° West 438 504 28,000  Level Denver Center
10:57AM 40.1225 -109.2736 273° West 435 501 28,000  Level Salt Lake Center
10:58AM 40.1272 -109.4247 272° West 435 501 28,000  Level Salt Lake Center
10:59AM 40.1333 -109.6017 273° West 437 503 28,000  Level Salt Lake Center
11:00AM 40.1381 -109.7519 272° West 434 499 28,000  Level Salt Lake Center
11:01AM 40.1422 -109.9042 272° West 438 504 28,000  Level Salt Lake Center
11:02AM 40.1475 -110.0817 272° West 438 504 28,000  Level Salt Lake Center
11:03AM 40.1486 -110.2350 271° West 441 507 28,000  Level Salt Lake Center
11:04AM 40.1472 -110.4114 269° West 437 503 28,000  Level Salt Lake Center
11:05AM 40.1450 -110.5661 269° West 443 510 28,000  Level Salt Lake Center
11:06AM 40.1431 -110.7442 269° West 441 507 28,000  Level Salt Lake Center
11:07AM 40.1411 -110.8983 269° West 442 509 28,000 -1,020 Level Salt Lake Center
11:09AM 40.1389 -111.0592 269° West 433 498 25,900 -2,100 Descending Salt Lake Center
11:10AM 40.1367 -111.2061 269° West 414 476 23,700 -2,100 Descending Salt Lake Center
11:11AM 40.1347 -111.3464 269° West 390 449 21,700 -2,040 Descending Salt Lake Center
11:12AM 40.1317 -111.4853 268° West 382 440 19,600 -1,980 Descending Salt Lake Center
11:12AM 40.1317 -111.5556 270° West 370 426 19,000 -600 Descending Salt Lake Center
11:13AM 40.1544 -111.6147 297° West 373 429 19,000  Level Salt Lake Center
11:13AM 40.1789 -111.6939 292° West 373 429 19,000 -600 Level Salt Lake Center
11:14AM 40.2256 -111.7447 320° Northwest 381 438 18,400 -1,320 Descending Salt Lake Center
11:14AM 40.2542 -111.7778 319° Northwest 370 426 17,700 -2,040 Descending Salt Lake Center
11:15AM 40.3122 -111.8169 333° Northwest 368 423 16,300 -2,100 Descending Salt Lake Center
11:15AM 40.3694 -111.8708 324° Northwest 362 417 15,000 -1,260 Descending Salt Lake Center
11:16AM 40.3964 -111.8853 338° Northwest 356 410 15,000  Level Salt Lake Center
11:16AM 40.4636 -111.9433 327° Northwest 352 405 15,000 -240 Level Salt Lake Center
11:17AM 40.4794 -111.9525 336° Northwest 352 405 14,800 -1,560 Descending Salt Lake Center
11:17AM 40.5383 -112.0053 326° Northwest 350 403 13,600 -1,380 Descending Salt Lake Center
11:18AM 40.5608 -112.0192 335° Northwest 343 395 13,400 -1,140 Descending Salt Lake Center
11:18AM 40.6200 -112.0708 326° Northwest 340 391 12,500 -1,260 Descending Salt Lake Center
11:19AM 40.6431 -112.0792 345° North 341 392 12,100 -1,860 Descending Salt Lake Center
11:19AM 40.6858 -112.0883 351° North 339 390 11,200 -1,080 Descending Salt Lake Center
11:20AM 40.7514 -112.0922 357° North 315 362 11,000 -240 Descending Salt Lake Center
11:20AM 40.7697 -112.0994 343° North 280 322 11,000 -780 Level Salt Lake Center
11:21AM 40.8217 -112.1008 359° North 250 288 10,200 -1,320 Descending Salt Lake Center
11:21AM 40.8375 -112.1047 349° North 251 289 9,700 -1,500 Descending Salt Lake Center
11:22AM 40.8914 -112.1092 356° North 250 288 8,700 -1,320 Descending Salt Lake Center
11:22AM 40.9081 -112.1122 352° North 247 284 8,400 -720 Descending Salt Lake Center
11:23AM 40.9503 -112.0983 14° North 228 262 8,000 -660 Descending Salt Lake Center
11:23AM 40.9558 -112.0706 75° East 216 249 7,700 -1,200 Descending Salt Lake Center
11:24AM 40.9600 -112.0225 83° East 212 244 6,800 -1,500 Descending Salt Lake Center
11:24AM 40.9442 -112.0006 134° Southeast 208 239 6,200 -780 Descending Salt Lake Center
11:25AM 40.9111 -111.9908 167° South 211 243 6,000 -540 Descending Salt Lake Center
11:25AM 40.8836 -111.9872 174° South 207 238 5,600 -1,020 Descending Salt Lake Center
11:26AM 40.8483 -111.9817 173° South 179 206 5,000 -840 Descending Salt Lake Center
11:26AM 40.8375 -111.9831 186° South 153 176 4,800 -720 Descending Salt Lake Center
11:27AM 40.8114 -111.9772 170° South 138 159 4,300 -780 Descending Salt Lake Center